createdAt,value
2019-01-21T00:01:48.990Z,100833.81
2019-01-21T00:06:52.850Z,100834.44
2019-01-21T00:11:56.781Z,100836.52
2019-01-21T00:17:00.634Z,100831.61
2019-01-21T00:22:04.524Z,100836.77
2019-01-21T00:27:08.375Z,100832.63
2019-01-21T00:32:12.168Z,100837.76
2019-01-21T00:37:16.030Z,100838.48
2019-01-21T00:42:20.058Z,100829.68
2019-01-21T00:47:29.778Z,100829.68
2019-01-21T00:52:29.466Z,100837.33
2019-01-21T00:57:33.305Z,100835.45
2019-01-21T01:02:37.226Z,100833.05
2019-01-21T01:07:41.000Z,100834.64
2019-01-21T01:12:44.871Z,100842.11
2019-01-21T01:17:48.664Z,100839.84
2019-01-21T01:22:52.548Z,100844.14
2019-01-21T01:27:56.373Z,100852.20
2019-01-21T01:33:00.165Z,100851.80
2019-01-21T01:38:04.410Z,100854.92
2019-01-21T01:43:08.157Z,100850.26
2019-01-21T01:48:12.185Z,100844.66
2019-01-21T01:53:16.013Z,100851.47
2019-01-21T01:58:20.251Z,100851.75
2019-01-21T02:03:24.080Z,100852.70
2019-01-21T02:08:27.971Z,100861.22
2019-01-21T02:13:31.740Z,100855.02
2019-01-21T02:18:35.519Z,100855.99
2019-01-21T02:23:39.434Z,100854.06
2019-01-21T02:29:15.378Z,100858.62
2019-01-21T02:34:43.258Z,100847.34
2019-01-21T02:39:56.895Z,100850.05
2019-01-21T02:46:02.883Z,100852.14
2019-01-21T02:51:36.338Z,100850.13
2019-01-21T02:56:52.383Z,100845.09
2019-01-21T03:02:43.356Z,100846.95
2019-01-21T03:08:03.844Z,100844.05
2019-01-21T03:13:51.529Z,100843.56
2019-01-21T03:19:23.245Z,100837.09
2019-01-21T03:24:49.398Z,100839.28
2019-01-21T03:30:26.134Z,100836.50
2019-01-21T03:35:57.237Z,100833.87
2019-01-21T03:41:24.829Z,100836.17
2019-01-21T03:46:53.558Z,100833.61
2019-01-21T03:52:26.687Z,100831.92
2019-01-21T03:58:09.436Z,100841.08
2019-01-21T04:03:43.869Z,100839.95
2019-01-21T04:09:11.381Z,100843.55
2019-01-21T04:14:43.064Z,100846.28
2019-01-21T04:20:04.949Z,100843.16
2019-01-21T04:25:44.978Z,100852.02
2019-01-21T04:31:38.620Z,100843.92
2019-01-21T04:36:57.898Z,100844.83
2019-01-21T04:42:27.117Z,100854.37
2019-01-21T04:47:54.626Z,100855.34
2019-01-21T04:53:34.048Z,100848.92
2019-01-21T04:59:24.324Z,100850.23
2019-01-21T05:05:21.336Z,100850.44
2019-01-21T05:10:53.905Z,100850.47
2019-01-21T05:16:35.002Z,100847.66
2019-01-21T05:22:17.846Z,100845.78
2019-01-21T05:27:45.955Z,100851.64
2019-01-21T05:33:06.489Z,100855.00
2019-01-21T05:38:38.458Z,100852.92
2019-01-21T05:44:19.665Z,100852.52
2019-01-21T05:49:39.158Z,100851.34
2019-01-21T05:55:35.654Z,100857.44
2019-01-21T06:01:27.046Z,100852.81
2019-01-21T06:06:42.351Z,100862.73
2019-01-21T06:12:26.449Z,100866.56
2019-01-21T06:18:08.233Z,100869.46
2019-01-21T06:23:54.326Z,100865.39
2019-01-21T06:29:28.873Z,100863.41
2019-01-21T06:35:02.500Z,100861.81
2019-01-21T06:40:38.010Z,100866.53
2019-01-21T06:46:14.713Z,100870.83
2019-01-21T06:51:57.012Z,100877.55
2019-01-21T06:57:37.640Z,100877.58
2019-01-21T07:03:25.681Z,100879.31
2019-01-21T07:09:02.536Z,100885.05
2019-01-21T07:14:47.776Z,100890.70
2019-01-21T07:20:44.160Z,100896.77
2019-01-21T07:26:22.942Z,100892.73
2019-01-21T07:31:38.647Z,100892.00
2019-01-21T07:37:31.057Z,100891.48
2019-01-21T07:43:10.598Z,100893.89
2019-01-21T07:48:30.347Z,100897.31
2019-01-21T07:54:10.751Z,100894.08
2019-01-21T07:59:40.640Z,100893.57
2019-01-21T08:05:05.180Z,100898.00
2019-01-21T08:10:46.324Z,100902.64
2019-01-21T08:16:10.903Z,100903.27
2019-01-21T08:22:02.672Z,100896.54
2019-01-21T08:27:33.705Z,100900.09
2019-01-21T08:33:11.002Z,100899.19
2019-01-21T08:38:37.398Z,100899.35
2019-01-21T08:44:34.711Z,100905.64
2019-01-21T08:49:45.543Z,100902.50
2019-01-21T08:55:22.651Z,100912.77
2019-01-21T09:00:53.244Z,100913.31
2019-01-21T09:06:37.159Z,100912.62
2019-01-21T09:12:21.146Z,100907.81
2019-01-21T09:17:40.141Z,100912.44
2019-01-21T09:23:25.395Z,100913.33
2019-01-21T09:29:06.874Z,100911.41
2019-01-21T09:34:58.460Z,100914.01
2019-01-21T09:40:41.718Z,100918.66
2019-01-21T09:46:41.884Z,100928.52
2019-01-21T09:51:59.670Z,100930.25
2019-01-21T09:57:06.318Z,100921.17
2019-01-21T10:02:10.850Z,100935.50
2019-01-21T10:07:30.513Z,100937.02
2019-01-21T10:13:14.357Z,100925.51
2019-01-21T10:18:43.453Z,100924.27
2019-01-21T10:24:09.482Z,100919.91
2019-01-21T10:29:30.473Z,100918.37
2019-01-21T10:35:03.367Z,100908.25
2019-01-21T10:40:24.478Z,100906.02
2019-01-21T10:45:47.991Z,100896.20
2019-01-21T10:51:04.939Z,100887.50
2019-01-21T10:56:25.913Z,100883.88
2019-01-21T11:01:51.359Z,100878.02
2019-01-21T11:07:28.132Z,100870.09
2019-01-21T11:12:44.478Z,100869.90
2019-01-21T11:18:38.655Z,100859.73
2019-01-21T11:24:05.630Z,100857.30
2019-01-21T11:29:45.193Z,100836.78
2019-01-21T11:35:13.017Z,100831.38
2019-01-21T11:40:43.150Z,100829.73
2019-01-21T11:46:10.850Z,100817.47
2019-01-21T11:51:44.103Z,100806.56
2019-01-21T11:56:58.099Z,100806.56
2019-01-21T12:02:35.921Z,100802.95
2019-01-21T12:08:34.893Z,100783.74
2019-01-21T12:14:06.133Z,100782.10
2019-01-21T12:19:37.816Z,100773.57
2019-01-21T12:24:53.114Z,100765.70
2019-01-21T12:30:33.027Z,100750.64
2019-01-21T12:35:50.332Z,100737.95
2019-01-21T12:41:21.721Z,100726.66
2019-01-21T12:46:53.468Z,100724.38
2019-01-21T12:52:22.063Z,100707.52
2019-01-21T12:58:19.432Z,100697.23
2019-01-21T13:04:10.945Z,100700.82
2019-01-21T13:09:54.863Z,100690.11
2019-01-21T13:15:38.763Z,100690.84
2019-01-21T13:21:20.000Z,100672.42
2019-01-21T13:26:51.992Z,100669.80
2019-01-21T13:32:31.167Z,100673.03
2019-01-21T13:37:53.823Z,100670.00
2019-01-21T13:43:08.592Z,100671.63
2019-01-21T13:48:47.354Z,100664.03
2019-01-21T13:54:38.474Z,100643.66
2019-01-21T14:00:29.015Z,100634.11
2019-01-21T14:06:08.799Z,100624.34
2019-01-21T14:11:30.726Z,100637.56
2019-01-21T14:17:27.446Z,100628.91
2019-01-21T14:22:54.535Z,100618.45
2019-01-21T14:28:39.237Z,100623.89
2019-01-21T14:34:27.380Z,100627.34
2019-01-21T14:40:12.264Z,100612.77
2019-01-21T14:45:34.659Z,100617.88
2019-01-21T15:23:51.532Z,100619.25
2019-01-21T15:29:14.696Z,100621.91
2019-01-21T15:39:00.685Z,100599.64
2019-01-21T15:44:12.339Z,100589.46
2019-01-21T15:49:45.540Z,100589.08
2019-01-21T15:55:28.782Z,100581.23
2019-01-21T16:01:17.479Z,100587.70
2019-01-21T16:06:48.991Z,100585.86
2019-01-21T16:12:32.525Z,100578.44
2019-01-21T16:18:19.891Z,100583.03
2019-01-21T16:23:48.006Z,100580.79
2019-01-21T16:29:12.527Z,100588.16
2019-01-21T16:34:50.696Z,100588.41
2019-01-21T16:40:18.360Z,100587.59
2019-01-21T16:45:24.161Z,100575.92
2019-01-21T16:50:29.083Z,100579.45
2019-01-21T16:55:33.899Z,100579.66
2019-01-21T17:00:38.804Z,100572.55
2019-01-21T17:05:43.589Z,100566.09
2019-01-21T17:10:48.373Z,100560.30
2019-01-21T17:15:53.228Z,100556.59
2019-01-21T17:20:57.974Z,100548.74
2019-01-21T17:26:02.742Z,100547.66
2019-01-21T17:31:07.596Z,100550.48
2019-01-21T17:36:12.435Z,100552.29
2019-01-21T17:41:17.184Z,100549.84
2019-01-21T17:46:22.007Z,100543.10
2019-01-21T17:51:26.920Z,100541.17
2019-01-21T17:56:31.742Z,100542.11
2019-01-21T18:01:39.344Z,100541.48
2019-01-21T18:06:42.991Z,100544.25
2019-01-21T18:11:47.712Z,100530.11
2019-01-21T18:16:52.486Z,100530.11
2019-01-21T18:21:57.230Z,100525.28
2019-01-21T18:27:02.038Z,100515.20
2019-01-21T18:32:06.830Z,100515.31
2019-01-21T18:37:11.695Z,100504.72
2019-01-21T18:42:16.470Z,100517.30
2019-01-21T18:47:21.225Z,100518.78
2019-01-21T18:52:26.048Z,100518.97
2019-01-21T18:57:30.856Z,100521.23
2019-01-21T19:02:35.703Z,100524.66
2019-01-21T19:07:40.502Z,100524.11
2019-01-21T19:12:45.307Z,100520.80
2019-01-21T19:17:51.055Z,100527.23
2019-01-21T19:22:55.805Z,100524.27
2019-01-21T19:28:00.538Z,100529.84
2019-01-21T19:33:05.353Z,100527.08
2019-01-21T19:38:10.193Z,100529.26
2019-01-21T19:43:14.912Z,100535.69
2019-01-21T19:48:19.725Z,100519.48
2019-01-21T19:53:24.544Z,100519.48
2019-01-21T19:58:29.265Z,100523.69
2019-01-21T20:03:33.978Z,100508.31
2019-01-21T20:08:38.701Z,100503.75
2019-01-21T20:13:43.589Z,100496.09
2019-01-21T20:18:48.318Z,100493.16
2019-01-21T20:23:53.049Z,100496.48
2019-01-21T20:28:57.883Z,100490.56
2019-01-21T20:34:02.682Z,100479.20
2019-01-21T20:39:09.456Z,100478.11
2019-01-21T20:44:14.304Z,100471.03
2019-01-21T20:49:19.044Z,100469.55
2019-01-21T20:54:23.772Z,100469.12
2019-01-21T20:59:28.504Z,100475.34
2019-01-21T21:04:33.297Z,100466.55
2019-01-21T21:09:38.093Z,100461.77
2019-01-21T21:14:42.959Z,100461.77
2019-01-21T21:19:47.671Z,100459.00
2019-01-21T21:24:52.410Z,100465.38
2019-01-21T21:29:57.274Z,100464.53
2019-01-21T21:35:02.075Z,100469.55
2019-01-21T21:40:12.285Z,100465.58
2019-01-21T21:45:17.945Z,100473.44
2019-01-21T21:50:25.378Z,100468.77
2019-01-21T21:55:30.213Z,100456.91
2019-01-21T22:00:35.087Z,100450.25
2019-01-21T22:05:39.814Z,100432.08
2019-01-21T22:10:44.579Z,100428.30
2019-01-21T22:15:49.363Z,100425.73
2019-01-21T22:20:54.642Z,100419.52
2019-01-21T22:25:59.404Z,100411.45
2019-01-21T22:31:05.280Z,100411.45
2019-01-21T22:36:10.082Z,100423.91
2019-01-21T22:41:14.884Z,100414.95
2019-01-21T22:46:19.653Z,100406.75
2019-01-21T22:51:24.402Z,100400.91
2019-01-21T22:56:29.108Z,100397.37
2019-01-21T23:01:34.468Z,100395.43
2019-01-21T23:06:39.282Z,100394.15
2019-01-21T23:11:44.042Z,100389.91
2019-01-21T23:16:48.835Z,100394.30
2019-01-21T23:21:53.557Z,100385.70
2019-01-21T23:26:58.305Z,100389.78
2019-01-21T23:32:03.028Z,100383.71
2019-01-21T23:37:07.919Z,100378.58
2019-01-21T23:42:12.723Z,100379.78
2019-01-21T23:47:17.830Z,100376.83
2019-01-21T23:52:22.624Z,100379.20
2019-01-21T23:57:27.343Z,100365.58
